Taupo (NZAP)

Aerodrome — Elev 1335
New Zealand
S038.44.22.999 E176.05.03.998
Loading chart...

Current Weather

NZAP 230100Z 24005KT 210V280 9999 NCD 22/09 Q1026 RMK AUTO VATSIM USE ONLY

Published 2 hours 34 minutes ago

Airport Activity

Loading chart...
Loading chart...

Positions

CallsignRadio Name / Freq / Voice Room / TypeFrequencyVoice RoomType
NZCH-B_CTR Bay Approach
119.500
nzch-b_ctr
119.500nzch-b_ctr

Charts